Time;durP1;ratioP1;P1;durP2;ratioP2;P2;SDS_P1;SDS_P2;PMS_P1;PMS_P2;Temp;Humidity;BMP_temperature;BMP_pressure;BME280_temperature;BME280_humidity;BME280_pressure;Samples;Min_cycle;Max_cycle;Signal;HPM_P1;HPM_P2
2022/01/19 00:02:35;;;;;;;2.25;1.35;;;;;;;4.75;85.69;101472.81;12270005;19;20006;-84
2022/01/19 00:06:37;;;;;;;4.40;1.60;;;;;;;4.71;85.80;101471.44;12273575;19;20018;-83
2022/01/19 00:10:39;;;;;;;3.38;2.17;;;;;;;4.74;85.92;101473.84;12268851;19;20022;-85
2022/01/19 00:14:41;;;;;;;7.47;3.65;;;;;;;4.75;85.89;101460.00;12271256;19;20010;-83
2022/01/19 00:18:42;;;;;;;4.88;2.67;;;;;;;4.68;85.69;101437.13;12269682;19;20010;-82
2022/01/19 00:22:44;;;;;;;4.30;2.63;;;;;;;4.71;85.68;101417.69;12276907;19;20755;-83
2022/01/19 00:26:47;;;;;;;4.07;2.33;;;;;;;4.73;85.86;101409.28;12247468;19;20022;-84
2022/01/19 00:30:49;;;;;;;3.78;1.70;;;;;;;4.78;86.16;101420.56;12250035;19;20040;-83
2022/01/19 00:34:51;;;;;;;2.50;1.43;;;;;;;4.83;86.10;101426.38;12251574;19;20003;-84
2022/01/19 00:38:53;;;;;;;2.60;2.00;;;;;;;4.82;85.65;101419.22;12246884;19;20551;-83
2022/01/19 00:42:55;;;;;;;2.25;1.58;;;;;;;4.77;85.18;101427.91;12242544;19;20017;-84
2022/01/19 00:46:57;;;;;;;2.53;1.40;;;;;;;4.79;85.62;101423.13;12247162;19;20014;-83
2022/01/19 00:50:58;;;;;;;4.60;1.70;;;;;;;4.76;84.85;101420.75;12254918;19;20007;-83
2022/01/19 00:55:00;;;;;;;3.10;1.73;;;;;;;4.80;84.87;101416.66;12264674;19;20010;-84
2022/01/19 00:59:02;;;;;;;2.78;1.70;;;;;;;4.81;84.43;101412.03;12251075;19;20357;-81
2022/01/19 01:03:04;;;;;;;3.30;1.93;;;;;;;4.80;84.34;101397.53;12247059;19;20056;-84
2022/01/19 01:07:06;;;;;;;2.20;1.38;;;;;;;4.79;83.90;101404.03;12241865;19;20294;-82
2022/01/19 01:11:08;;;;;;;2.83;1.70;;;;;;;4.81;84.16;101401.09;12243446;19;20108;-83
2022/01/19 01:19:25;;;;;;;4.22;2.00;;;;;;;4.76;83.68;101403.53;12240773;19;20511;-81
2022/01/19 01:23:29;;;;;;;4.32;1.63;;;;;;;4.73;83.91;101395.66;12236265;19;20416;-83
2022/01/19 01:27:31;;;;;;;2.05;1.30;;;;;;;4.80;84.08;101383.88;12241342;19;20020;-82
2022/01/19 01:31:34;;;;;;;3.60;1.58;;;;;;;4.81;83.99;101365.59;12256968;19;20006;-82
2022/01/19 01:35:36;;;;;;;4.40;1.40;;;;;;;4.84;84.37;101359.78;12260718;19;20006;-81
2022/01/19 01:39:37;;;;;;;2.53;1.52;;;;;;;4.80;83.92;101362.03;12258896;19;20014;-82
2022/01/19 01:43:44;;;;;;;4.72;1.90;;;;;;;4.71;83.71;101365.78;12266854;19;20455;-82
2022/01/19 01:47:52;;;;;;;3.45;1.90;;;;;;;4.68;83.46;101384.41;12272977;19;20019;-82
2022/01/19 01:56:16;;;;;;;3.35;1.52;;;;;;;4.56;82.85;101381.19;12259991;19;20021;-83
2022/01/19 02:00:24;;;;;;;4.53;1.90;;;;;;;4.50;82.58;101374.53;12252054;19;20472;-82
2022/01/19 02:04:30;;;;;;;4.43;1.80;;;;;;;4.42;82.21;101370.94;12250847;19;20013;-83
2022/01/19 02:08:43;;;;;;;3.05;1.58;;;;;;;4.40;82.00;101356.63;12248031;19;20031;-84
2022/01/19 02:25:57;;;;;;;3.95;1.52;;;;;;;4.51;82.33;101307.97;12253110;19;20341;-84
2022/01/19 02:51:19;;;;;;;2.83;1.60;;;;;;;4.57;82.83;101270.94;12260488;19;20019;-82
2022/01/19 02:55:22;;;;;;;3.07;1.60;;;;;;;4.60;83.02;101267.00;12260778;19;20019;-81
2022/01/19 03:08:44;;;;;;;4.35;2.53;;;;;;;4.53;82.98;101245.88;12256053;19;20015;-83
2022/01/19 03:12:26;;;;;;;4.13;2.42;;;;;;;4.57;83.08;101232.72;12254811;19;20014;-83
2022/01/19 03:16:27;;;;;;;3.35;2.05;;;;;;;4.58;83.15;101234.44;12258182;19;20011;-81
2022/01/19 03:20:30;;;;;;;6.72;2.90;;;;;;;4.57;83.27;101222.66;12257233;19;20010;-82
2022/01/19 03:24:38;;;;;;;4.22;2.67;;;;;;;4.57;83.12;101217.19;12256799;19;20070;-82
2022/01/19 03:28:39;;;;;;;4.95;3.30;;;;;;;4.57;83.20;101208.16;12253768;19;20479;-81
2022/01/19 03:32:43;;;;;;;5.88;3.15;;;;;;;4.55;83.48;101202.00;12270116;19;20010;-82
2022/01/19 03:36:46;;;;;;;6.55;3.58;;;;;;;4.55;83.32;101185.63;12265403;19;20014;-83
2022/01/19 03:40:49;;;;;;;7.40;3.95;;;;;;;4.48;83.02;101166.38;12261418;19;20479;-83
2022/01/19 03:44:51;;;;;;;8.23;4.07;;;;;;;4.39;83.10;101164.72;12262398;19;20025;-83
2022/01/19 03:48:58;;;;;;;7.47;4.10;;;;;;;4.25;82.96;101159.97;12258819;19;20349;-82
2022/01/19 03:53:00;;;;;;;10.00;4.05;;;;;;;4.04;83.67;101153.22;12248815;19;20331;-82
2022/01/19 03:57:02;;;;;;;5.55;4.32;;;;;;;3.80;84.58;101131.47;12257525;19;20108;-83
2022/01/19 04:01:06;;;;;;;;;;;;;;;3.46;85.64;101118.06;12255620;19;20493;-83
2022/01/19 04:05:17;;;;;;;10.13;5.07;;;;;;;3.18;86.28;101099.31;12255723;19;19942;-83
2022/01/19 04:09:19;;;;;;;7.90;4.25;;;;;;;2.94;86.96;101090.16;12262543;19;20014;-82
2022/01/19 04:13:30;;;;;;;9.13;4.47;;;;;;;2.72;87.16;101067.13;12268891;19;20018;-83
2022/01/19 04:17:33;;;;;;;6.28;3.85;;;;;;;2.51;87.88;101055.88;12260885;19;20590;-84
2022/01/19 04:21:34;;;;;;;6.88;4.00;;;;;;;2.36;88.51;101039.34;12259375;19;20048;-82
2022/01/19 04:25:36;;;;;;;8.27;4.13;;;;;;;2.24;88.22;101052.41;12263174;19;20034;-83
2022/01/19 04:29:38;;;;;;;9.65;4.53;;;;;;;2.16;88.70;101046.94;12267589;19;20014;-81
2022/01/19 04:33:43;;;;;;;10.30;4.53;;;;;;;2.10;89.32;101031.28;12254639;19;20018;-82
2022/01/19 05:16:21;;;;;;;10.15;5.22;;;;;;;1.58;90.32;101015.09;12256412;19;20006;-81
2022/01/19 05:20:24;;;;;;;8.27;4.72;;;;;;;1.49;90.00;101016.94;12260666;19;20014;-83
2022/01/19 05:24:25;;;;;;;8.93;4.75;;;;;;;1.41;90.64;101014.16;12261365;19;20042;-84
2022/01/19 05:28:43;;;;;;;10.70;4.15;;;;;;;1.28;90.90;101019.16;12252899;19;20014;-85
2022/01/19 05:32:47;;;;;;;8.25;5.03;;;;;;;1.19;91.32;101012.84;12252438;19;20014;-83
2022/01/19 05:36:49;;;;;;;10.88;4.88;;;;;;;1.07;91.69;101005.94;12250888;19;20021;-82
2022/01/19 05:41:07;;;;;;;10.13;4.85;;;;;;;0.95;91.82;100999.06;12241827;19;20034;-84
2022/01/19 05:45:13;;;;;;;8.65;4.65;;;;;;;0.87;92.15;100997.16;12247135;19;20015;-83
2022/01/19 05:49:16;;;;;;;11.98;5.60;;;;;;;0.79;92.32;100991.66;12246543;19;20015;-83
2022/01/19 05:53:18;;;;;;;11.63;4.97;;;;;;;0.76;92.79;100992.81;12239588;19;20007;-84
2022/01/19 05:57:20;;;;;;;18.70;5.15;;;;;;;0.74;92.72;100989.41;12244843;19;20014;-82
2022/01/19 06:01:23;;;;;;;11.98;5.50;;;;;;;0.70;92.80;100981.75;12250698;19;20042;-83
2022/01/19 06:05:25;;;;;;;9.02;4.50;;;;;;;0.64;93.04;100988.66;12237714;19;20033;-82
2022/01/19 06:13:46;;;;;;;10.93;5.55;;;;;;;0.58;93.84;100979.28;12228051;19;20015;-83
2022/01/19 06:17:48;;;;;;;11.57;5.20;;;;;;;0.56;94.09;100989.44;12229823;19;20611;-83
2022/01/19 06:21:54;;;;;;;10.27;5.00;;;;;;;0.53;94.09;100986.19;12222931;19;20034;-83
2022/01/19 06:25:56;;;;;;;;;;;;;;;0.49;94.38;100995.66;12234827;19;20013;-84
2022/01/19 06:30:02;;;;;;;11.07;5.18;;;;;;;0.50;95.25;101000.91;12237003;19;20018;-84
2022/01/19 06:34:04;;;;;;;12.02;5.07;;;;;;;0.51;94.74;101007.22;12245332;19;20010;-83
2022/01/19 06:38:21;;;;;;;11.55;5.47;;;;;;;0.47;94.64;100998.50;12224405;19;20014;-83
2022/01/19 06:42:44;;;;;;;;;;;;;;;0.41;95.08;101001.84;12232983;19;20011;-84
2022/01/19 06:46:46;;;;;;;12.52;5.82;;;;;;;0.38;94.89;100999.44;12242811;19;19922;-83
2022/01/19 06:50:48;;;;;;;17.30;6.23;;;;;;;0.34;95.09;100987.22;12238410;19;20014;-82
2022/01/19 06:54:55;;;;;;;10.70;5.53;;;;;;;0.31;95.59;100977.53;12230603;19;20010;-83
2022/01/19 06:58:56;;;;;;;14.18;6.40;;;;;;;0.31;95.80;100971.25;12222821;19;20476;-83
2022/01/19 07:03:04;;;;;;;13.93;6.55;;;;;;;0.31;96.00;100971.25;12227625;19;20007;-83
2022/01/19 07:07:13;;;;;;;10.88;5.95;;;;;;;0.25;96.06;100961.88;12242215;19;20095;-83
2022/01/19 07:11:38;;;;;;;10.57;5.97;;;;;;;0.22;96.22;100954.06;12234033;19;20038;-82
2022/01/19 07:15:40;;;;;;;13.38;6.22;;;;;;;0.22;96.38;100954.06;12232994;19;20014;-83
2022/01/19 07:19:44;;;;;;;12.55;5.65;;;;;;;0.19;96.31;100949.78;12240289;19;20022;-83
2022/01/19 07:23:47;;;;;;;13.20;6.78;;;;;;;0.18;96.78;100945.38;12227443;19;20007;-83
2022/01/19 07:27:55;;;;;;;14.05;6.68;;;;;;;0.18;96.93;100947.25;12231182;19;20820;-83
2022/01/19 07:31:58;;;;;;;14.13;6.93;;;;;;;0.18;96.93;100939.13;12223681;19;20014;-82
2022/01/19 07:36:00;;;;;;;16.98;7.13;;;;;;;0.18;97.13;100930.97;12224908;19;20015;-83
2022/01/19 07:40:03;;;;;;;18.23;7.10;;;;;;;0.19;97.24;100935.38;12229476;19;20740;-83
2022/01/19 07:44:06;;;;;;;13.57;6.97;;;;;;;0.20;97.46;100923.53;12237691;19;20011;-84
2022/01/19 07:48:26;;;;;;;10.73;5.63;;;;;;;0.22;97.36;100925.06;12225904;19;20029;-82
2022/01/19 07:52:42;;;;;;;11.40;5.45;;;;;;;0.25;97.26;100917.66;12241148;19;20010;-82
2022/01/19 07:56:56;;;;;;;11.02;5.53;;;;;;;0.28;97.81;100911.91;12260719;19;20038;-83
2022/01/19 08:01:47;;;;;;;12.82;5.40;;;;;;;0.29;97.55;100925.31;12264624;19;20029;-81
2022/01/19 08:06:32;;;;;;;11.90;5.82;;;;;;;0.31;97.57;100906.19;12240697;19;20018;-81
2022/01/19 08:10:37;;;;;;;13.50;6.55;;;;;;;0.31;97.68;100890.75;12267496;19;20007;-84
2022/01/19 08:14:53;;;;;;;11.18;6.03;;;;;;;0.34;98.16;100885.03;12263464;19;20002;-81
2022/01/19 08:19:06;;;;;;;13.88;5.65;;;;;;;0.42;98.02;100892.38;12267233;19;20014;-84
2022/01/19 08:23:25;;;;;;;19.25;8.60;;;;;;;0.54;97.79;100898.41;12271478;19;20010;-83
2022/01/19 08:27:40;;;;;;;14.52;6.95;;;;;;;0.65;97.72;100892.69;12268812;19;20013;-81
2022/01/19 08:31:57;;;;;;;10.45;5.72;;;;;;;0.78;97.93;100868.72;12267859;19;20011;-81
2022/01/19 08:36:37;;;;;;;13.93;6.13;;;;;;;0.98;97.51;100876.63;12269539;19;20020;-81
2022/01/19 08:40:55;;;;;;;12.40;7.28;;;;;;;1.12;96.92;100882.28;12231994;19;20010;-82
2022/01/19 08:45:41;;;;;;;15.50;6.47;;;;;;;1.32;96.72;100890.22;12276030;19;20023;-80
2022/01/19 08:50:44;;;;;;;19.15;7.75;;;;;;;1.48;96.10;100892.97;12274699;19;20026;-81
2022/01/19 08:55:19;;;;;;;14.13;7.32;;;;;;;1.61;95.36;100895.25;12269719;19;20014;-79
2022/01/19 08:59:21;;;;;;;15.95;7.97;;;;;;;1.69;94.76;100894.41;12275991;19;20018;-79
2022/01/19 09:03:22;;;;;;;15.90;8.02;;;;;;;1.74;94.19;100887.44;12275688;19;20039;-81
2022/01/19 09:07:24;;;;;;;16.75;7.78;;;;;;;1.82;93.67;100884.75;12256041;19;20021;-80
2022/01/19 09:11:28;;;;;;;16.77;8.25;;;;;;;1.81;92.62;100885.78;12262141;19;20010;-81
2022/01/19 09:15:30;;;;;;;16.35;8.73;;;;;;;1.92;92.25;100870.16;12262676;19;20074;-81
2022/01/19 09:19:32;;;;;;;18.98;8.07;;;;;;;1.94;92.00;100866.25;12261603;19;20007;-80
2022/01/19 09:23:37;;;;;;;20.73;9.20;;;;;;;2.03;91.58;100862.53;12264037;19;20007;-81
2022/01/19 09:27:40;;;;;;;14.88;8.55;;;;;;;2.16;91.50;100859.31;12250575;19;20010;-81
2022/01/19 09:31:44;;;;;;;14.23;8.83;;;;;;;2.27;90.51;100849.97;12251499;19;20014;-82
2022/01/19 09:39:53;;;;;;;18.92;8.13;;;;;;;2.45;89.66;100845.19;12257976;19;20021;-82
2022/01/19 09:43:55;;;;;;;17.40;8.02;;;;;;;2.55;88.83;100836.84;12266486;19;20015;-82
2022/01/19 09:47:57;;;;;;;18.08;8.05;;;;;;;2.69;88.54;100838.00;12255282;19;20005;-81
2022/01/19 09:51:59;;;;;;;17.45;7.80;;;;;;;2.78;88.10;100822.50;12248640;19;20030;-81
2022/01/19 09:56:03;;;;;;;16.20;9.30;;;;;;;2.93;87.58;100818.03;12244223;19;20015;-81
2022/01/19 10:00:05;;;;;;;15.75;8.65;;;;;;;3.06;87.49;100809.31;12243455;19;19999;-80
2022/01/19 10:04:20;;;;;;;19.70;9.05;;;;;;;3.18;87.05;100803.31;12250034;19;20014;-84
2022/01/19 10:08:32;;;;;;;20.02;10.25;;;;;;;3.39;86.56;100819.03;12248474;19;20103;-84
2022/01/19 10:17:06;;;;;;;17.90;9.30;;;;;;;3.70;85.19;100818.16;12225969;19;20042;-81
2022/01/19 10:21:16;;;;;;;19.73;9.73;;;;;;;3.73;84.61;100803.34;12243066;19;20007;-80
2022/01/19 10:25:17;;;;;;;14.90;8.73;;;;;;;3.71;84.17;100803.50;12238650;19;20015;-82
2022/01/19 10:29:26;;;;;;;15.85;9.93;;;;;;;3.80;84.98;100796.13;12232537;19;20053;-81
2022/01/19 10:33:28;;;;;;;17.95;9.32;;;;;;;3.91;84.73;100779.34;12239030;19;20083;-81
2022/01/19 10:37:29;;;;;;;20.42;10.82;;;;;;;4.03;84.28;100779.75;12243806;19;20339;-81
2022/01/19 10:41:38;;;;;;;24.83;10.55;;;;;;;4.06;83.61;100769.31;12258074;19;20018;-80
2022/01/19 10:45:46;;;;;;;28.13;10.75;;;;;;;4.26;83.58;100780.56;12263975;19;20032;-80
2022/01/19 10:50:11;;;;;;;25.00;11.52;;;;;;;4.22;82.41;100762.84;12260275;19;20015;-82
2022/01/19 10:54:26;;;;;;;19.92;10.63;;;;;;;4.23;82.50;100759.09;12263092;19;20006;-81
2022/01/19 10:58:59;;;;;;;;;;;;;;;4.15;82.08;100745.53;12262624;19;20049;-81
2022/01/19 11:03:18;;;;;;;23.02;10.25;;;;;;;4.23;82.63;100742.75;12267404;19;19918;-81
2022/01/19 11:07:25;;;;;;;23.08;10.20;;;;;;;4.24;82.34;100749.03;12252065;19;20668;-80
2022/01/19 11:11:28;;;;;;;21.38;10.07;;;;;;;4.14;82.71;100759.38;12262621;19;20018;-81
2022/01/19 11:15:29;;;;;;;13.93;8.20;;;;;;;4.05;82.80;100751.25;12259755;19;20011;-81
2022/01/19 11:19:36;;;;;;;22.83;10.77;;;;;;;3.94;83.34;100751.69;12241023;19;20031;-80
2022/01/19 11:23:50;;;;;;;18.85;9.90;;;;;;;3.85;83.68;100739.16;12238593;19;20006;-79
2022/01/19 11:27:52;;;;;;;21.63;11.30;;;;;;;3.75;83.96;100750.34;12241916;19;20042;-81
2022/01/19 11:31:55;;;;;;;19.75;11.25;;;;;;;3.64;84.63;100742.56;12239193;19;20014;-80
2022/01/19 11:36:05;;;;;;;19.58;10.73;;;;;;;3.63;85.13;100738.16;12245453;19;20010;-81
2022/01/19 11:40:16;;;;;;;21.02;11.00;;;;;;;3.69;85.23;100744.75;12246738;19;19999;-80
2022/01/19 11:44:33;;;;;;;22.67;11.10;;;;;;;3.64;85.15;100745.28;12247324;19;20326;-81
2022/01/19 11:48:44;;;;;;;19.17;10.73;;;;;;;3.68;85.27;100737.59;12246017;19;20362;-80
2022/01/19 11:52:47;;;;;;;21.27;10.75;;;;;;;3.66;85.01;100721.44;12237949;19;20109;-81
2022/01/19 11:56:58;;;;;;;21.17;10.13;;;;;;;3.58;85.63;100710.59;12240020;19;20016;-80
2022/01/19 12:01:00;;;;;;;24.15;11.50;;;;;;;3.47;85.65;100698.22;12242794;19;20014;-79
2022/01/19 12:05:07;;;;;;;21.95;10.57;;;;;;;3.38;85.96;100688.44;12233100;19;20034;-80
2022/01/19 12:09:12;;;;;;;24.05;11.20;;;;;;;3.32;86.56;100684.56;12251790;19;20018;-80
2022/01/19 12:17:54;;;;;;;21.83;11.30;;;;;;;3.25;87.10;100666.41;12246200;19;20007;-81
2022/01/19 12:22:11;;;;;;;21.40;10.68;;;;;;;3.28;87.27;100658.72;12245601;19;20504;-81
2022/01/19 12:26:14;;;;;;;18.80;9.65;;;;;;;3.20;87.76;100647.88;12249441;19;20011;-80
2022/01/19 12:30:18;;;;;;;21.58;11.63;;;;;;;3.25;88.00;100642.72;12243794;19;20007;-81
2022/01/19 12:34:20;;;;;;;22.20;12.38;;;;;;;3.10;88.72;100628.22;12241214;19;20018;-81
2022/01/19 12:38:30;;;;;;;23.77;11.75;;;;;;;3.09;88.80;100624.63;12243960;19;20030;-81
2022/01/19 12:42:55;;;;;;;22.10;11.10;;;;;;;3.10;88.66;100614.59;12240872;19;20074;-83
2022/01/19 12:46:56;;;;;;;23.60;11.32;;;;;;;3.01;89.26;100615.69;12240496;19;20520;-82
2022/01/19 12:50:58;;;;;;;21.20;10.50;;;;;;;2.99;90.00;100601.41;12241025;19;20010;-80
2022/01/19 12:55:17;;;;;;;23.38;11.65;;;;;;;3.12;89.85;100605.22;12243183;19;20046;-81
2022/01/19 12:59:19;;;;;;;28.45;12.35;;;;;;;3.19;90.07;100598.00;12243845;19;20030;-81
2022/01/19 13:03:25;;;;;;;22.00;10.90;;;;;;;3.25;89.58;100581.97;12247156;19;20041;-81
2022/01/19 13:07:29;;;;;;;30.95;12.13;;;;;;;3.18;90.14;100571.81;12245096;19;20006;-82
2022/01/19 13:11:39;;;;;;;26.25;11.98;;;;;;;3.17;90.39;100574.69;12249849;19;20007;-82
2022/01/19 13:15:43;;;;;;;18.88;10.85;;;;;;;3.17;90.41;100567.38;12245123;19;20010;-84
2022/01/19 13:19:45;;;;;;;22.42;11.07;;;;;;;3.09;90.61;100570.16;12240585;19;20062;-82
2022/01/19 13:23:56;;;;;;;24.10;11.43;;;;;;;3.05;90.71;100568.00;12245859;19;20040;-82
2022/01/19 13:28:01;;;;;;;21.70;10.50;;;;;;;3.06;90.38;100561.50;12247579;19;20017;-81
2022/01/19 13:32:13;;;;;;;19.42;10.23;;;;;;;3.02;90.72;100552.88;12235772;19;20015;-82
2022/01/19 13:36:14;;;;;;;20.10;9.77;;;;;;;3.05;90.49;100541.59;12236967;19;19995;-81
2022/01/19 13:40:20;;;;;;;22.15;10.40;;;;;;;3.04;90.84;100536.34;12244821;19;20030;-82
2022/01/19 13:44:34;;;;;;;22.55;9.05;;;;;;;3.10;90.18;100535.63;12236666;19;20021;-82
2022/01/19 13:48:37;;;;;;;;;;;;;;;3.06;90.52;100540.56;12250921;19;20018;-81
2022/01/19 13:52:38;;;;;;;19.55;10.50;;;;;;;3.10;90.31;100528.28;12239979;19;19907;-83
2022/01/19 13:56:41;;;;;;;21.42;9.60;;;;;;;3.18;89.87;100530.09;12239521;19;20377;-81
2022/01/19 14:00:51;;;;;;;21.75;9.80;;;;;;;3.12;89.79;100520.81;12240648;19;20117;-81
2022/01/19 14:04:54;;;;;;;22.48;10.20;;;;;;;3.10;90.24;100516.56;12240397;19;20017;-81
2022/01/19 14:09:12;;;;;;;24.20;10.70;;;;;;;3.07;90.45;100506.03;12251434;19;20590;-84
2022/01/19 14:13:36;;;;;;;21.13;9.32;;;;;;;3.11;90.08;100501.91;12247951;19;20010;-83
2022/01/19 14:17:40;;;;;;;21.05;9.82;;;;;;;3.17;89.95;100502.00;12243253;19;20014;-82
2022/01/19 14:21:57;;;;;;;17.58;8.63;;;;;;;3.11;90.03;100502.75;12240705;19;20112;-82
2022/01/19 14:26:11;;;;;;;18.67;9.07;;;;;;;3.04;90.23;100496.34;12244454;19;20458;-83
2022/01/19 14:30:13;;;;;;;20.33;10.60;;;;;;;3.14;90.16;100502.38;12239615;19;20038;-82
2022/01/19 14:34:31;;;;;;;16.95;9.00;;;;;;;3.11;89.81;100494.59;12235319;19;20552;-83
2022/01/19 14:38:36;;;;;;;21.33;9.77;;;;;;;3.18;89.87;100503.72;12238577;19;20028;-82
2022/01/19 14:42:38;;;;;;;20.02;9.23;;;;;;;3.11;90.43;100500.03;12235140;19;20030;-83
2022/01/19 14:46:55;;;;;;;21.80;9.35;;;;;;;3.08;91.44;100494.09;12238902;19;20006;-83
2022/01/19 14:50:57;;;;;;;23.23;10.35;;;;;;;3.05;91.73;100491.75;12237538;19;20020;-82
2022/01/19 14:55:00;;;;;;;;;;;;;;;3.00;92.43;100478.69;12237967;19;20034;-81
2022/01/19 14:59:09;;;;;;;21.25;10.20;;;;;;;3.05;91.94;100481.69;12242495;19;19907;-83
2022/01/19 15:03:11;;;;;;;20.38;9.20;;;;;;;3.07;92.00;100490.53;12239629;19;20030;-81
2022/01/19 15:07:13;;;;;;;17.50;8.85;;;;;;;3.04;92.57;100488.19;12227897;19;20006;-83
2022/01/19 15:11:16;;;;;;;17.38;8.88;;;;;;;3.06;92.27;100485.28;12237935;19;20003;-82
2022/01/19 15:15:21;;;;;;;22.77;9.43;;;;;;;2.99;92.95;100482.44;12234604;19;20002;-83
2022/01/19 15:19:23;;;;;;;19.55;10.00;;;;;;;3.05;92.52;100473.53;12238690;19;20042;-82
2022/01/19 15:23:24;;;;;;;23.63;10.55;;;;;;;3.08;92.56;100478.63;12233847;19;20030;-81
2022/01/19 15:27:26;;;;;;;23.50;10.30;;;;;;;3.07;92.95;100467.91;12238020;19;20010;-82
2022/01/19 15:31:31;;;;;;;17.97;8.87;;;;;;;3.08;93.27;100464.16;12244110;19;20036;-82
2022/01/19 15:35:33;;;;;;;21.00;9.82;;;;;;;2.97;94.48;100452.69;12245376;19;20011;-82
2022/01/19 15:39:35;;;;;;;16.25;7.70;;;;;;;2.96;94.79;100461.03;12238000;19;20046;-82
2022/01/19 15:43:37;;;;;;;20.55;10.07;;;;;;;2.96;94.94;100467.31;12241013;19;20013;-83
2022/01/19 15:47:40;;;;;;;22.23;9.98;;;;;;;2.97;95.13;100451.81;12238130;19;20014;-81
2022/01/19 15:51:42;;;;;;;20.98;10.85;;;;;;;2.97;95.52;100458.13;12235276;19;20090;-82
2022/01/19 15:55:46;;;;;;;22.95;11.05;;;;;;;2.96;95.89;100463.75;12242550;19;20019;-81
2022/01/19 15:59:51;;;;;;;27.20;11.50;;;;;;;2.94;96.44;100465.81;12240574;19;20010;-83
2022/01/19 16:03:52;;;;;;;23.27;10.45;;;;;;;2.95;96.60;100453.91;12243076;19;20015;-82
2022/01/19 16:07:54;;;;;;;26.63;11.98;;;;;;;2.90;97.55;100448.16;12240878;19;20030;-82
2022/01/19 16:11:57;;;;;;;24.95;11.60;;;;;;;2.91;97.59;100458.00;12240982;19;20014;-80
2022/01/19 16:15:59;;;;;;;26.35;12.70;;;;;;;2.87;98.49;100456.69;12238173;19;20003;-81
2022/01/19 16:20:01;;;;;;;28.48;12.63;;;;;;;2.91;97.97;100458.00;12237846;19;20006;-81
2022/01/19 16:28:23;;;;;;;21.67;10.32;;;;;;;3.00;97.02;100459.63;12236615;19;20015;-80
2022/01/19 16:32:24;;;;;;;26.58;10.25;;;;;;;2.94;97.41;100463.09;12237469;19;19999;-82
2022/01/19 16:36:27;;;;;;;28.15;10.48;;;;;;;2.93;97.33;100448.63;12241686;19;20011;-82
2022/01/19 16:40:29;;;;;;;27.75;11.30;;;;;;;2.99;96.95;100443.47;12234117;19;20569;-81
2022/01/19 16:44:31;;;;;;;21.85;9.82;;;;;;;2.95;97.88;100448.47;12248277;19;20007;-82
2022/01/19 16:48:34;;;;;;;24.55;11.00;;;;;;;2.93;98.10;100443.19;12245279;19;20010;-82
2022/01/19 16:52:37;;;;;;;21.52;9.30;;;;;;;2.84;99.25;100430.69;12244840;19;20107;-82
2022/01/19 16:56:38;;;;;;;18.33;8.30;;;;;;;2.86;99.44;100433.25;12242166;19;20077;-82
2022/01/19 17:00:41;;;;;;;19.88;9.35;;;;;;;2.86;99.75;100434.09;12240202;19;20500;-82
2022/01/19 17:04:42;;;;;;;23.88;10.02;;;;;;;2.92;99.20;100457.00;12236171;19;20006;-81
2022/01/19 17:08:45;;;;;;;25.88;11.68;;;;;;;2.85;100.00;100447.84;12241811;19;20007;-82
2022/01/19 17:12:48;;;;;;;24.40;10.07;;;;;;;2.81;100.00;100441.94;12232094;19;20011;-79
2022/01/19 17:17:07;;;;;;;23.10;9.60;;;;;;;2.72;100.00;100443.88;12228997;19;20066;-84
2022/01/19 17:21:09;;;;;;;26.35;11.07;;;;;;;2.71;100.00;100447.66;12233588;19;20022;-83
2022/01/19 17:25:11;;;;;;;22.92;9.20;;;;;;;2.64;100.00;100452.13;12227393;19;20007;-83
2022/01/19 17:29:13;;;;;;;23.73;10.23;;;;;;;2.63;100.00;100450.44;12240754;19;20048;-82
2022/01/19 17:33:14;;;;;;;22.55;9.82;;;;;;;2.60;100.00;100449.97;12236028;19;20014;-83
2022/01/19 17:37:16;;;;;;;24.88;10.57;;;;;;;2.60;100.00;100461.69;12233286;19;20531;-81
2022/01/19 17:41:18;;;;;;;25.38;11.00;;;;;;;2.66;100.00;100457.38;12230048;19;20039;-81
2022/01/19 18:01:29;;;;;;;22.88;10.15;;;;;;;2.71;100.00;100436.75;12229700;19;20018;-82
2022/01/19 18:15:16;;;;;;;22.55;9.10;;;;;;;2.70;100.00;100439.66;12237226;19;20005;-82
2022/01/19 18:19:26;;;;;;;21.20;10.38;;;;;;;2.72;100.00;100443.88;12220808;19;20009;-82
2022/01/19 18:23:27;;;;;;;22.30;11.38;;;;;;;2.75;100.00;100448.13;12225959;19;20006;-82
2022/01/19 18:27:31;;;;;;;19.88;9.55;;;;;;;2.74;100.00;100444.56;12223412;19;20006;-82
2022/01/19 18:31:32;;;;;;;21.10;10.50;;;;;;;2.81;100.00;100446.53;12224726;19;20014;-81
2022/01/19 18:35:34;;;;;;;22.25;10.25;;;;;;;2.81;100.00;100435.66;12221614;19;20072;-82
2022/01/19 18:39:36;;;;;;;19.98;9.48;;;;;;;2.83;100.00;100442.63;12224327;19;20066;-82
2022/01/19 18:43:38;;;;;;;24.40;11.25;;;;;;;2.87;100.00;100440.38;12222969;19;20720;-83
2022/01/19 18:47:40;;;;;;;21.27;10.70;;;;;;;2.93;100.00;100445.06;12231823;19;20006;-82
2022/01/19 18:51:42;;;;;;;19.98;9.90;;;;;;;2.93;100.00;100445.91;12220308;19;20318;-80
2022/01/19 18:55:44;;;;;;;23.42;10.75;;;;;;;2.93;100.00;100451.34;12222221;19;20002;-82
2022/01/19 18:59:52;;;;;;;19.67;9.18;;;;;;;2.95;100.00;100456.63;12236527;19;20014;-82
2022/01/19 19:03:54;;;;;;;18.23;9.05;;;;;;;2.90;100.00;100457.16;12236843;19;20010;-81
2022/01/19 19:07:56;;;;;;;16.95;7.65;;;;;;;2.97;100.00;100457.28;12246149;19;20018;-81
2022/01/19 19:12:16;;;;;;;17.70;8.85;;;;;;;2.94;100.00;100454.91;12243232;19;20041;-81
2022/01/19 19:16:17;;;;;;;21.08;9.23;;;;;;;2.92;100.00;100448.84;12244031;19;20006;-81
2022/01/19 19:20:19;;;;;;;17.70;8.68;;;;;;;2.93;100.00;100447.78;12252166;19;20038;-83
2022/01/19 19:24:21;;;;;;;18.10;9.10;;;;;;;2.96;100.00;100444.69;12242263;19;20011;-82
2022/01/19 19:28:26;;;;;;;19.40;9.90;;;;;;;2.93;100.00;100448.63;12233670;19;20014;-85
2022/01/19 19:32:32;;;;;;;19.00;9.18;;;;;;;2.94;100.00;100452.19;12234978;19;20037;-84
2022/01/19 19:36:39;;;;;;;20.10;9.10;;;;;;;2.97;100.00;100444.53;12244132;19;20736;-83
2022/01/19 19:40:53;;;;;;;18.65;8.35;;;;;;;3.01;100.00;100436.81;12259457;19;20040;-82
2022/01/19 19:44:57;;;;;;;20.08;9.30;;;;;;;2.98;100.00;100439.94;12253070;19;20103;-82
2022/01/19 19:48:59;;;;;;;18.67;9.38;;;;;;;2.98;100.00;100442.66;12240967;19;20015;-82
2022/01/19 19:53:04;;;;;;;20.67;9.83;;;;;;;2.99;100.00;100448.94;12238648;19;20007;-82
2022/01/19 19:57:08;;;;;;;20.40;10.10;;;;;;;3.00;100.00;100451.44;12245371;19;20015;-83
2022/01/19 20:01:10;;;;;;;20.90;10.15;;;;;;;3.05;100.00;100454.47;12240319;19;20038;-83
2022/01/19 20:05:11;;;;;;;18.40;9.60;;;;;;;2.98;100.00;100448.09;12240001;19;20423;-82
2022/01/19 20:09:20;;;;;;;20.83;11.07;;;;;;;3.08;100.00;100445.09;12241956;19;20014;-84
2022/01/19 20:13:23;;;;;;;21.45;11.30;;;;;;;3.08;100.00;100435.03;12243365;19;20006;-84
2022/01/19 20:17:25;;;;;;;20.77;10.45;;;;;;;3.10;100.00;100433.00;12243957;19;20009;-84
2022/01/19 20:21:45;;;;;;;21.40;10.15;;;;;;;3.13;100.00;100435.34;12240910;19;20027;-86
2022/01/19 20:25:52;;;;;;;20.70;10.43;;;;;;;3.16;100.00;100442.28;12248047;19;20015;-83
2022/01/19 20:30:06;;;;;;;19.80;11.13;;;;;;;3.07;100.00;100443.41;12258206;19;20018;-80
2022/01/19 20:34:07;;;;;;;;;;;;;;;3.06;100.00;100441.69;12235788;19;20070;-82
2022/01/19 20:38:09;;;;;;;21.45;10.80;;;;;;;3.00;100.00;100437.00;12237696;19;19927;-81
2022/01/19 20:42:11;;;;;;;21.50;11.25;;;;;;;3.00;100.00;100431.56;12237851;19;20021;-81
2022/01/19 20:46:13;;;;;;;21.33;10.82;;;;;;;3.02;100.00;100430.34;12239203;19;20013;-82
2022/01/19 20:50:18;;;;;;;24.60;11.90;;;;;;;3.03;100.00;100431.19;12255418;19;20014;-80
2022/01/19 20:54:19;;;;;;;24.05;12.00;;;;;;;3.04;100.00;100433.75;12230099;19;20349;-80
2022/01/19 20:58:23;;;;;;;23.90;12.15;;;;;;;3.02;100.00;100416.72;12252766;19;20023;-81
2022/01/19 21:02:34;;;;;;;22.40;12.02;;;;;;;3.06;100.00;100422.66;12229452;19;20011;-80
2022/01/19 21:06:36;;;;;;;18.60;10.70;;;;;;;3.05;100.00;100420.97;12228080;19;20090;-81
2022/01/19 21:10:37;;;;;;;19.70;10.05;;;;;;;3.06;100.00;100428.94;12234008;19;20030;-80